createdAt,value
2023-03-04T00:01:00.000Z,1019.9
2023-03-04T00:02:16.000Z,1019.9
2023-03-04T00:03:32.000Z,1019.8
2023-03-04T00:04:49.000Z,1019.9
2023-03-04T00:06:05.000Z,1019.9
2023-03-04T00:07:21.000Z,1019.8
2023-03-04T00:08:37.000Z,1019.9
2023-03-04T00:09:54.000Z,1019.9
2023-03-04T00:11:10.000Z,1019.9
2023-03-04T00:12:26.000Z,1019.8
2023-03-04T00:13:42.000Z,1019.8
2023-03-04T00:14:58.000Z,1019.9
2023-03-04T00:16:14.000Z,1019.8
2023-03-04T00:17:30.000Z,1019.8
2023-03-04T00:18:46.000Z,1019.8
2023-03-04T00:20:02.000Z,1019.8
2023-03-04T00:21:19.000Z,1019.8
2023-03-04T00:22:35.000Z,1019.8
2023-03-04T00:23:51.000Z,1019.8
2023-03-04T00:25:06.000Z,1019.8
2023-03-04T00:26:23.000Z,1019.8
2023-03-04T00:28:54.000Z,1019.8
2023-03-04T00:30:10.000Z,1019.8
2023-03-04T00:31:26.000Z,1019.8
2023-03-04T00:32:41.000Z,1019.8
2023-03-04T00:33:57.000Z,1019.8
2023-03-04T00:35:13.000Z,1019.8
2023-03-04T00:36:30.000Z,1019.8
2023-03-04T00:37:46.000Z,1019.8
2023-03-04T00:39:02.000Z,1019.7
2023-03-04T00:40:18.000Z,1019.7
2023-03-04T00:41:35.000Z,1019.8
2023-03-04T00:42:51.000Z,1019.8
2023-03-04T00:44:07.000Z,1019.8
2023-03-04T00:45:23.000Z,1019.8
2023-03-04T00:46:39.000Z,1019.8
2023-03-04T00:47:56.000Z,1019.8
2023-03-04T00:49:11.000Z,1019.7
2023-03-04T00:50:27.000Z,1019.7
2023-03-04T00:51:43.000Z,1019.8
2023-03-04T00:53:00.000Z,1019.8
2023-03-04T00:54:16.000Z,1019.7
2023-03-04T00:55:32.000Z,1019.8
2023-03-04T00:56:48.000Z,1019.7
2023-03-04T00:58:05.000Z,1019.8
2023-03-04T00:59:21.000Z,1019.8
2023-03-04T01:00:37.000Z,1019.7
2023-03-04T01:01:53.000Z,1019.8
2023-03-04T01:03:10.000Z,1019.7
2023-03-04T01:04:26.000Z,1019.7
2023-03-04T01:05:41.000Z,1019.6
2023-03-04T01:06:57.000Z,1019.7
2023-03-04T01:08:13.000Z,1019.7
2023-03-04T01:09:30.000Z,1019.6
2023-03-04T01:10:46.000Z,1019.6
2023-03-04T01:12:02.000Z,1019.6
2023-03-04T01:13:18.000Z,1019.7
2023-03-04T01:14:35.000Z,1019.7
2023-03-04T01:15:51.000Z,1019.7
2023-03-04T01:17:07.000Z,1019.7
2023-03-04T01:18:23.000Z,1019.7
2023-03-04T01:19:40.000Z,1019.6
2023-03-04T01:20:56.000Z,1019.6
2023-03-04T01:22:11.000Z,1019.6
2023-03-04T01:23:27.000Z,1019.6
2023-03-04T01:24:44.000Z,1019.6
2023-03-04T01:25:59.000Z,1019.6
2023-03-04T01:27:14.000Z,1019.5
2023-03-04T01:28:30.000Z,1019.6
2023-03-04T01:29:47.000Z,1019.6
2023-03-04T01:31:03.000Z,1019.5
2023-03-04T01:32:18.000Z,1019.6
2023-03-04T01:33:33.000Z,1019.5
2023-03-04T01:34:50.000Z,1019.6
2023-03-04T01:36:06.000Z,1019.5
2023-03-04T01:37:22.000Z,1019.5
2023-03-04T01:38:38.000Z,1019.5
2023-03-04T01:39:54.000Z,1019.4
2023-03-04T01:41:11.000Z,1019.5
2023-03-04T01:42:27.000Z,1019.5
2023-03-04T01:43:43.000Z,1019.4
2023-03-04T01:44:59.000Z,1019.4
2023-03-04T01:46:16.000Z,1019.4
2023-03-04T01:47:32.000Z,1019.4
2023-03-04T01:48:48.000Z,1019.4
2023-03-04T01:50:03.000Z,1019.4
2023-03-04T01:51:20.000Z,1019.4
2023-03-04T01:52:36.000Z,1019.3
2023-03-04T01:53:52.000Z,1019.4
2023-03-04T01:55:08.000Z,1019.3
2023-03-04T01:56:25.000Z,1019.3
2023-03-04T01:57:41.000Z,1019.3
2023-03-04T01:58:56.000Z,1019.2
2023-03-04T02:00:11.000Z,1019.2
2023-03-04T02:01:28.000Z,1019.3
2023-03-04T02:02:44.000Z,1019.2
2023-03-04T02:04:00.000Z,1019.2
2023-03-04T02:05:16.000Z,1019.2
2023-03-04T02:06:32.000Z,1019.3
2023-03-04T02:07:49.000Z,1019.3
2023-03-04T02:09:05.000Z,1019.2
2023-03-04T02:10:21.000Z,1019.3
2023-03-04T02:11:36.000Z,1019.2
2023-03-04T02:12:52.000Z,1019.2
2023-03-04T02:14:08.000Z,1019.2
2023-03-04T02:15:24.000Z,1019.2
2023-03-04T02:16:40.000Z,1019.2
2023-03-04T02:17:57.000Z,1019.2
2023-03-04T02:19:13.000Z,1019.2
2023-03-04T02:20:29.000Z,1019.2
2023-03-04T02:21:45.000Z,1019.2
2023-03-04T02:23:02.000Z,1019.2
2023-03-04T02:24:18.000Z,1019.2
2023-03-04T02:25:34.000Z,1019.2
2023-03-04T02:26:50.000Z,1019.1
2023-03-04T02:28:06.000Z,1019.1
2023-03-04T02:29:22.000Z,1019.1
2023-03-04T02:30:38.000Z,1019.1
2023-03-04T02:31:54.000Z,1019.1
2023-03-04T02:33:10.000Z,1019.1
2023-03-04T02:34:27.000Z,1019.1
2023-03-04T02:35:43.000Z,1019.1
2023-03-04T02:36:59.000Z,1019
2023-03-04T02:38:15.000Z,1019
2023-03-04T02:39:32.000Z,1019
2023-03-04T02:40:48.000Z,1019
2023-03-04T02:42:04.000Z,1019
2023-03-04T02:43:20.000Z,1019
2023-03-04T02:44:37.000Z,1019
2023-03-04T02:45:52.000Z,1019
2023-03-04T02:47:08.000Z,1019
2023-03-04T02:48:24.000Z,1018.9
2023-03-04T02:49:40.000Z,1019
2023-03-04T02:50:57.000Z,1018.9
2023-03-04T02:52:13.000Z,1018.9
2023-03-04T02:53:29.000Z,1018.9
2023-03-04T02:54:45.000Z,1018.8
2023-03-04T02:56:02.000Z,1018.9
2023-03-04T02:57:18.000Z,1018.9
2023-03-04T02:58:34.000Z,1018.8
2023-03-04T02:59:50.000Z,1018.8
2023-03-04T03:01:07.000Z,1018.8
2023-03-04T03:02:22.000Z,1018.9
2023-03-04T03:03:38.000Z,1018.8
2023-03-04T03:04:54.000Z,1018.8
2023-03-04T03:06:11.000Z,1018.8
2023-03-04T03:07:27.000Z,1018.8
2023-03-04T03:08:43.000Z,1018.8
2023-03-04T03:09:59.000Z,1018.8
2023-03-04T03:11:15.000Z,1018.8
2023-03-04T03:12:32.000Z,1018.8
2023-03-04T03:13:48.000Z,1018.8
2023-03-04T03:15:04.000Z,1018.8
2023-03-04T03:16:20.000Z,1018.7
2023-03-04T03:17:37.000Z,1018.8
2023-03-04T03:18:52.000Z,1018.8
2023-03-04T03:20:08.000Z,1018.8
2023-03-04T03:21:24.000Z,1018.8
2023-03-04T03:22:41.000Z,1018.7
2023-03-04T03:23:57.000Z,1018.7
2023-03-04T03:25:13.000Z,1018.7
2023-03-04T03:26:29.000Z,1018.7
2023-03-04T03:27:46.000Z,1018.7
2023-03-04T03:29:02.000Z,1018.7
2023-03-04T03:30:18.000Z,1018.7
2023-03-04T03:31:34.000Z,1018.7
2023-03-04T03:32:50.000Z,1018.7
2023-03-04T03:34:07.000Z,1018.7
2023-03-04T03:35:22.000Z,1018.6
2023-03-04T03:36:38.000Z,1018.7
2023-03-04T03:37:54.000Z,1018.6
2023-03-04T03:39:11.000Z,1018.7
2023-03-04T03:40:27.000Z,1018.7
2023-03-04T03:41:43.000Z,1018.7
2023-03-04T03:42:59.000Z,1018.6
2023-03-04T03:44:16.000Z,1018.7
2023-03-04T03:45:32.000Z,1018.7
2023-03-04T03:46:48.000Z,1018.6
2023-03-04T03:48:04.000Z,1018.6
2023-03-04T03:49:21.000Z,1018.7
2023-03-04T03:50:37.000Z,1018.7
2023-03-04T03:51:52.000Z,1018.7
2023-03-04T03:53:08.000Z,1018.6
2023-03-04T03:54:24.000Z,1018.7
2023-03-04T03:55:41.000Z,1018.6
2023-03-04T03:56:57.000Z,1018.7
2023-03-04T03:58:13.000Z,1018.7
2023-03-04T03:59:29.000Z,1018.7
2023-03-04T04:00:46.000Z,1018.7
2023-03-04T04:02:02.000Z,1018.7
2023-03-04T04:03:18.000Z,1018.7
2023-03-04T04:04:34.000Z,1018.7
2023-03-04T04:05:50.000Z,1018.6
2023-03-04T04:07:05.000Z,1018.6
2023-03-04T04:08:21.000Z,1018.7
2023-03-04T04:09:37.000Z,1018.7
2023-03-04T04:10:54.000Z,1018.7
2023-03-04T04:12:10.000Z,1018.6
2023-03-04T04:13:26.000Z,1018.7
2023-03-04T04:14:42.000Z,1018.6
2023-03-04T04:15:58.000Z,1018.7
2023-03-04T04:17:13.000Z,1018.7
2023-03-04T04:18:29.000Z,1018.6
2023-03-04T04:19:45.000Z,1018.6
2023-03-04T04:21:01.000Z,1018.6
2023-03-04T04:22:18.000Z,1018.6
2023-03-04T04:23:34.000Z,1018.6
2023-03-04T04:24:50.000Z,1018.6
2023-03-04T04:26:06.000Z,1018.5
2023-03-04T04:27:23.000Z,1018.6
2023-03-04T04:28:39.000Z,1018.6
2023-03-04T04:29:55.000Z,1018.6
2023-03-04T04:31:11.000Z,1018.5
2023-03-04T04:32:28.000Z,1018.6
2023-03-04T04:33:43.000Z,1018.6
2023-03-04T04:34:59.000Z,1018.6
2023-03-04T04:36:15.000Z,1018.6
2023-03-04T04:37:32.000Z,1018.5
2023-03-04T04:38:48.000Z,1018.6
2023-03-04T04:40:04.000Z,1018.6
2023-03-04T04:41:20.000Z,1018.6
2023-03-04T04:42:36.000Z,1018.5
2023-03-04T04:43:53.000Z,1018.5
2023-03-04T04:45:09.000Z,1018.5
2023-03-04T04:46:25.000Z,1018.5
2023-03-04T04:47:41.000Z,1018.5
2023-03-04T04:48:58.000Z,1018.4
2023-03-04T04:50:13.000Z,1018.5
2023-03-04T04:51:29.000Z,1018.5
2023-03-04T04:52:45.000Z,1018.4
2023-03-04T04:54:02.000Z,1018.4
2023-03-04T04:55:18.000Z,1018.5
2023-03-04T04:56:34.000Z,1018.5
2023-03-04T04:57:50.000Z,1018.4
2023-03-04T04:59:07.000Z,1018.5
2023-03-04T05:00:23.000Z,1018.4
2023-03-04T05:01:39.000Z,1018.4
2023-03-04T05:02:55.000Z,1018.5
2023-03-04T05:04:11.000Z,1018.5
2023-03-04T05:05:28.000Z,1018.4
2023-03-04T05:06:43.000Z,1018.4
2023-03-04T05:07:59.000Z,1018.4
2023-03-04T05:09:15.000Z,1018.5
2023-03-04T05:10:32.000Z,1018.5
2023-03-04T05:11:48.000Z,1018.5
2023-03-04T05:13:04.000Z,1018.5
2023-03-04T05:14:20.000Z,1018.5
2023-03-04T05:15:37.000Z,1018.5
2023-03-04T05:16:53.000Z,1018.5
2023-03-04T05:18:09.000Z,1018.5
2023-03-04T05:19:25.000Z,1018.5
2023-03-04T05:20:42.000Z,1018.6
2023-03-04T05:21:58.000Z,1018.6
2023-03-04T05:23:13.000Z,1018.5
2023-03-04T05:24:29.000Z,1018.5
2023-03-04T05:25:45.000Z,1018.5
2023-03-04T05:27:02.000Z,1018.6
2023-03-04T05:28:18.000Z,1018.6
2023-03-04T05:29:34.000Z,1018.6
2023-03-04T05:30:50.000Z,1018.6
2023-03-04T05:32:07.000Z,1018.6
2023-03-04T05:33:23.000Z,1018.6
2023-03-04T05:34:39.000Z,1018.6
2023-03-04T05:35:55.000Z,1018.7
2023-03-04T05:37:12.000Z,1018.6
2023-03-04T05:38:28.000Z,1018.6
2023-03-04T05:39:43.000Z,1018.6
2023-03-04T05:40:59.000Z,1018.6
2023-03-04T05:42:16.000Z,1018.6
2023-03-04T05:43:32.000Z,1018.7
2023-03-04T05:44:48.000Z,1018.6
2023-03-04T05:46:04.000Z,1018.6
2023-03-04T05:47:20.000Z,1018.6
2023-03-04T05:48:36.000Z,1018.6
2023-03-04T05:49:52.000Z,1018.6
2023-03-04T05:51:08.000Z,1018.6
2023-03-04T05:52:24.000Z,1018.7
2023-03-04T05:53:41.000Z,1018.7
2023-03-04T05:54:57.000Z,1018.6
2023-03-04T05:56:13.000Z,1018.6
2023-03-04T05:57:29.000Z,1018.6
2023-03-04T05:58:46.000Z,1018.7
2023-03-04T06:00:02.000Z,1018.7
2023-03-04T06:01:18.000Z,1018.8
2023-03-04T06:02:34.000Z,1018.7
2023-03-04T06:03:51.000Z,1018.7
2023-03-04T06:05:06.000Z,1018.7
2023-03-04T06:06:22.000Z,1018.7
2023-03-04T06:07:38.000Z,1018.6
2023-03-04T06:08:54.000Z,1018.7
2023-03-04T06:10:11.000Z,1018.7
2023-03-04T06:11:27.000Z,1018.6
2023-03-04T06:12:43.000Z,1018.6
2023-03-04T06:15:16.000Z,1018.6
2023-03-04T06:16:32.000Z,1018.6
2023-03-04T06:17:48.000Z,1018.6
2023-03-04T06:19:04.000Z,1018.7
2023-03-04T06:20:21.000Z,1018.7
2023-03-04T06:21:36.000Z,1018.6
2023-03-04T06:22:52.000Z,1018.6
2023-03-04T06:24:08.000Z,1018.6
2023-03-04T06:25:25.000Z,1018.6
2023-03-04T06:26:41.000Z,1018.6
2023-03-04T06:27:57.000Z,1018.6
2023-03-04T06:29:13.000Z,1018.6
2023-03-04T06:30:29.000Z,1018.7
2023-03-04T06:31:46.000Z,1018.7
2023-03-04T06:33:02.000Z,1018.6
2023-03-04T06:34:18.000Z,1018.6
2023-03-04T06:35:34.000Z,1018.7
2023-03-04T06:36:51.000Z,1018.6
2023-03-04T06:38:06.000Z,1018.8
2023-03-04T06:39:22.000Z,1018.7
2023-03-04T06:40:38.000Z,1018.7
2023-03-04T06:41:55.000Z,1018.7
2023-03-04T06:43:11.000Z,1018.7
2023-03-04T06:44:27.000Z,1018.8
2023-03-04T06:45:43.000Z,1018.7
2023-03-04T06:48:16.000Z,1018.8
2023-03-04T06:49:32.000Z,1018.8
2023-03-04T06:50:48.000Z,1018.8
2023-03-04T06:53:21.000Z,1018.8
2023-03-04T06:54:36.000Z,1018.8
2023-03-04T06:55:52.000Z,1018.8
2023-03-04T06:57:08.000Z,1018.9
2023-03-04T06:58:25.000Z,1018.8
2023-03-04T06:59:41.000Z,1018.8
2023-03-04T07:00:57.000Z,1018.8
2023-03-04T07:02:13.000Z,1018.8
2023-03-04T07:03:30.000Z,1018.8
2023-03-04T07:04:46.000Z,1018.8
2023-03-04T07:06:02.000Z,1018.8
2023-03-04T07:08:35.000Z,1018.8
2023-03-04T07:09:50.000Z,1018.8
2023-03-04T07:11:05.000Z,1018.7
2023-03-04T07:12:21.000Z,1018.7
2023-03-04T07:13:37.000Z,1018.7
2023-03-04T07:14:54.000Z,1018.8
2023-03-04T07:16:10.000Z,1018.7
2023-03-04T07:17:26.000Z,1018.7
2023-03-04T07:18:42.000Z,1018.7
2023-03-04T07:19:59.000Z,1018.7
2023-03-04T07:21:15.000Z,1018.7
2023-03-04T07:22:31.000Z,1018.7
2023-03-04T07:23:46.000Z,1018.7
2023-03-04T07:25:02.000Z,1018.7
2023-03-04T07:26:18.000Z,1018.7
2023-03-04T07:27:34.000Z,1018.8
2023-03-04T07:28:50.000Z,1018.8
2023-03-04T07:30:07.000Z,1018.7
2023-03-04T07:31:23.000Z,1018.7
2023-03-04T07:32:39.000Z,1018.7
2023-03-04T07:33:55.000Z,1018.7
2023-03-04T07:35:12.000Z,1018.7
2023-03-04T07:36:28.000Z,1018.8
2023-03-04T07:37:44.000Z,1018.8
2023-03-04T07:40:16.000Z,1018.7
2023-03-04T07:41:32.000Z,1018.8
2023-03-04T07:42:48.000Z,1018.8
2023-03-04T07:44:04.000Z,1018.7
2023-03-04T07:45:20.000Z,1018.8
2023-03-04T07:46:37.000Z,1018.8
2023-03-04T07:47:53.000Z,1018.8
2023-03-04T07:49:09.000Z,1018.8
2023-03-04T07:50:25.000Z,1018.7
2023-03-04T07:51:42.000Z,1018.7
2023-03-04T07:52:58.000Z,1018.7
2023-03-04T07:54:14.000Z,1018.7
2023-03-04T07:55:30.000Z,1018.7
2023-03-04T07:56:47.000Z,1018.7
2023-03-04T07:58:02.000Z,1018.7
2023-03-04T07:59:18.000Z,1018.7
2023-03-04T08:00:34.000Z,1018.8
2023-03-04T08:01:50.000Z,1018.7
2023-03-04T08:03:07.000Z,1018.8
2023-03-04T08:04:23.000Z,1018.8
2023-03-04T08:05:39.000Z,1018.8
2023-03-04T08:06:55.000Z,1018.8
2023-03-04T08:08:12.000Z,1018.8
2023-03-04T08:09:28.000Z,1018.8
2023-03-04T08:10:44.000Z,1018.8
2023-03-04T08:12:00.000Z,1018.8
2023-03-04T08:13:17.000Z,1018.8
2023-03-04T08:14:32.000Z,1018.8
2023-03-04T08:15:48.000Z,1018.8
2023-03-04T08:17:04.000Z,1018.8
2023-03-04T08:18:21.000Z,1018.8
2023-03-04T08:19:37.000Z,1018.9
2023-03-04T08:20:53.000Z,1018.8
2023-03-04T08:22:09.000Z,1018.9
2023-03-04T08:23:25.000Z,1018.9
2023-03-04T08:24:42.000Z,1018.9
2023-03-04T08:25:58.000Z,1018.8
2023-03-04T08:27:14.000Z,1018.9
2023-03-04T08:28:30.000Z,1018.8
2023-03-04T08:29:47.000Z,1018.8
2023-03-04T08:31:02.000Z,1018.8
2023-03-04T08:32:18.000Z,1018.8
2023-03-04T08:33:34.000Z,1018.8
2023-03-04T08:34:51.000Z,1018.8
2023-03-04T08:36:07.000Z,1018.8
2023-03-04T08:37:23.000Z,1018.8
2023-03-04T08:38:39.000Z,1018.9
2023-03-04T08:39:56.000Z,1018.8
2023-03-04T08:41:12.000Z,1018.7
2023-03-04T08:43:44.000Z,1018.9
2023-03-04T08:45:00.000Z,1018.9
2023-03-04T08:46:17.000Z,1018.8
2023-03-04T08:47:32.000Z,1018.9
2023-03-04T08:48:48.000Z,1018.9
2023-03-04T08:50:04.000Z,1018.8
2023-03-04T08:51:21.000Z,1018.8
2023-03-04T08:52:37.000Z,1018.8
2023-03-04T08:53:53.000Z,1018.9
2023-03-04T08:55:09.000Z,1018.9
2023-03-04T08:56:26.000Z,1018.8
2023-03-04T08:57:42.000Z,1018.8
2023-03-04T08:58:58.000Z,1018.8
2023-03-04T09:00:14.000Z,1018.8
2023-03-04T09:01:31.000Z,1018.7
2023-03-04T09:02:47.000Z,1018.7
2023-03-04T09:04:02.000Z,1018.6
2023-03-04T09:05:18.000Z,1018.7
2023-03-04T09:06:34.000Z,1018.7
2023-03-04T09:07:51.000Z,1018.6
2023-03-04T09:09:07.000Z,1018.6
2023-03-04T09:10:23.000Z,1018.6
2023-03-04T09:11:39.000Z,1018.7
2023-03-04T09:12:56.000Z,1018.6
2023-03-04T09:14:12.000Z,1018.6
2023-03-04T09:15:28.000Z,1018.6
2023-03-04T09:16:44.000Z,1018.6
2023-03-04T09:18:01.000Z,1018.6
2023-03-04T09:19:17.000Z,1018.6
2023-03-04T09:20:32.000Z,1018.6
2023-03-04T09:21:48.000Z,1018.6
2023-03-04T09:23:05.000Z,1018.6
2023-03-04T09:24:21.000Z,1018.6
2023-03-04T09:25:37.000Z,1018.6
2023-03-04T09:26:53.000Z,1018.5
2023-03-04T09:28:09.000Z,1018.6
2023-03-04T09:29:26.000Z,1018.6
2023-03-04T09:30:42.000Z,1018.6
2023-03-04T09:31:58.000Z,1018.6
2023-03-04T09:33:14.000Z,1018.6
2023-03-04T09:34:31.000Z,1018.6
2023-03-04T09:35:47.000Z,1018.6
2023-03-04T09:37:02.000Z,1018.6
2023-03-04T09:38:18.000Z,1018.5
2023-03-04T09:39:35.000Z,1018.7
2023-03-04T09:40:51.000Z,1018.6
2023-03-04T09:42:07.000Z,1018.5
2023-03-04T09:43:23.000Z,1018.6
2023-03-04T09:44:40.000Z,1018.6
2023-03-04T09:45:56.000Z,1018.6
2023-03-04T09:47:12.000Z,1018.5
2023-03-04T09:48:28.000Z,1018.6
2023-03-04T09:49:44.000Z,1018.6
2023-03-04T09:51:01.000Z,1018.6
2023-03-04T09:52:17.000Z,1018.5
2023-03-04T09:53:32.000Z,1018.6
2023-03-04T09:54:48.000Z,1018.5
2023-03-04T09:56:05.000Z,1018.5
2023-03-04T09:57:21.000Z,1018.6
2023-03-04T09:58:37.000Z,1018.5
2023-03-04T09:59:53.000Z,1018.5
2023-03-04T10:01:10.000Z,1018.5
2023-03-04T10:02:26.000Z,1018.5
2023-03-04T10:03:41.000Z,1018.5
2023-03-04T10:04:57.000Z,1018.5
2023-03-04T10:06:14.000Z,1018.4
2023-03-04T10:07:30.000Z,1018.5
2023-03-04T10:08:46.000Z,1018.4
2023-03-04T10:10:02.000Z,1018.4
2023-03-04T10:11:18.000Z,1018.4
2023-03-04T10:12:35.000Z,1018.4
2023-03-04T10:13:51.000Z,1018.4
2023-03-04T10:15:07.000Z,1018.3
2023-03-04T10:16:23.000Z,1018.4
2023-03-04T10:17:40.000Z,1018.4
2023-03-04T10:18:56.000Z,1018.4
2023-03-04T10:20:12.000Z,1018.5
2023-03-04T10:21:27.000Z,1018.4
2023-03-04T10:22:44.000Z,1018.4
2023-03-04T10:24:00.000Z,1018.3
2023-03-04T10:25:16.000Z,1018.3
2023-03-04T10:26:32.000Z,1018.3
2023-03-04T10:27:49.000Z,1018.4
2023-03-04T10:29:05.000Z,1018.3
2023-03-04T10:31:37.000Z,1018.3
2023-03-04T10:34:10.000Z,1018.3
2023-03-04T10:35:26.000Z,1018.4
2023-03-04T10:36:42.000Z,1018.3
2023-03-04T10:37:57.000Z,1018.2
2023-03-04T10:39:14.000Z,1018.3
2023-03-04T10:40:30.000Z,1018.3
2023-03-04T10:41:46.000Z,1018.2
2023-03-04T10:43:02.000Z,1018.3
2023-03-04T10:44:19.000Z,1018.3
2023-03-04T10:45:35.000Z,1018.3
2023-03-04T10:46:51.000Z,1018.3
2023-03-04T10:48:07.000Z,1018.2
2023-03-04T10:49:24.000Z,1018.3
2023-03-04T10:50:40.000Z,1018.3
2023-03-04T10:51:56.000Z,1018.3
2023-03-04T10:53:12.000Z,1018.1
2023-03-04T10:54:27.000Z,1018.2
2023-03-04T10:55:44.000Z,1018.3
2023-03-04T10:57:00.000Z,1018.3
2023-03-04T10:59:32.000Z,1018.3
2023-03-04T11:00:49.000Z,1018.2
2023-03-04T11:02:05.000Z,1018.2
2023-03-04T11:03:21.000Z,1018.2
2023-03-04T11:04:37.000Z,1018.1
2023-03-04T11:05:54.000Z,1018.2
2023-03-04T11:07:10.000Z,1018.2
2023-03-04T11:08:26.000Z,1018.1
2023-03-04T11:09:42.000Z,1018.1
2023-03-04T11:10:58.000Z,1018.1
2023-03-04T11:12:14.000Z,1018.1
2023-03-04T11:13:30.000Z,1018.1
2023-03-04T11:14:46.000Z,1018.1
2023-03-04T11:16:02.000Z,1018.1
2023-03-04T11:17:19.000Z,1018
2023-03-04T11:18:35.000Z,1018.1
2023-03-04T11:19:51.000Z,1018.1
2023-03-04T11:21:07.000Z,1018.1
2023-03-04T11:22:24.000Z,1018.1
2023-03-04T11:23:40.000Z,1018
2023-03-04T11:24:56.000Z,1018.1
2023-03-04T11:26:12.000Z,1018
2023-03-04T11:27:28.000Z,1018.1
2023-03-04T11:28:44.000Z,1018
2023-03-04T11:30:00.000Z,1018.1
2023-03-04T11:31:16.000Z,1018
2023-03-04T11:32:33.000Z,1018
2023-03-04T11:33:49.000Z,1018
2023-03-04T11:35:05.000Z,1018.1
2023-03-04T11:36:21.000Z,1018.1
2023-03-04T11:37:37.000Z,1018.2
2023-03-04T11:38:54.000Z,1018.1
2023-03-04T11:40:10.000Z,1018.1
2023-03-04T11:41:26.000Z,1018.1
2023-03-04T11:42:42.000Z,1018.1
2023-03-04T11:43:58.000Z,1018.1
2023-03-04T11:45:14.000Z,1018
2023-03-04T11:46:30.000Z,1018.1
2023-03-04T11:47:46.000Z,1018.2
2023-03-04T11:49:03.000Z,1018.1
2023-03-04T11:50:19.000Z,1018.1
2023-03-04T11:51:35.000Z,1018.1
2023-03-04T11:52:51.000Z,1018
2023-03-04T11:54:08.000Z,1018
2023-03-04T11:55:24.000Z,1017.9
2023-03-04T11:56:40.000Z,1018
2023-03-04T11:57:56.000Z,1018
2023-03-04T11:59:12.000Z,1017.9
2023-03-04T12:00:28.000Z,1017.9
2023-03-04T12:01:44.000Z,1017.9
2023-03-04T12:03:00.000Z,1017.9
2023-03-04T12:04:16.000Z,1017.9
2023-03-04T12:05:33.000Z,1017.8
2023-03-04T12:06:49.000Z,1017.7
2023-03-04T12:08:05.000Z,1017.8
2023-03-04T12:09:21.000Z,1017.7
2023-03-04T12:10:38.000Z,1017.7
2023-03-04T12:11:54.000Z,1017.7
2023-03-04T12:13:10.000Z,1017.7
2023-03-04T12:14:26.000Z,1017.7
2023-03-04T12:15:43.000Z,1017.6
2023-03-04T12:16:58.000Z,1017.6
2023-03-04T12:19:30.000Z,1017.5
2023-03-04T12:20:46.000Z,1017.5
2023-03-04T12:22:03.000Z,1017.5
2023-03-04T12:23:19.000Z,1017.5
2023-03-04T12:24:35.000Z,1017.5
2023-03-04T12:25:51.000Z,1017.5
2023-03-04T12:27:08.000Z,1017.4
2023-03-04T12:28:24.000Z,1017.4
2023-03-04T12:29:40.000Z,1017.4
2023-03-04T12:30:56.000Z,1017.4
2023-03-04T12:32:13.000Z,1017.4
2023-03-04T12:33:28.000Z,1017.3
2023-03-04T12:34:44.000Z,1017.4
2023-03-04T12:36:00.000Z,1017.4
2023-03-04T12:37:17.000Z,1017.4
2023-03-04T12:38:33.000Z,1017.4
2023-03-04T12:39:49.000Z,1017.3
2023-03-04T12:41:05.000Z,1017.3
2023-03-04T12:42:21.000Z,1017.3
2023-03-04T12:43:38.000Z,1017.3
2023-03-04T12:44:54.000Z,1017.3
2023-03-04T12:46:10.000Z,1017.3
2023-03-04T12:47:26.000Z,1017.2
2023-03-04T12:48:43.000Z,1017.3
2023-03-04T12:49:58.000Z,1017.2
2023-03-04T12:51:14.000Z,1017.2
2023-03-04T12:53:47.000Z,1017.2
2023-03-04T12:55:03.000Z,1017.1
2023-03-04T12:56:19.000Z,1017.2
2023-03-04T12:57:35.000Z,1017.2
2023-03-04T12:58:51.000Z,1017.1
2023-03-04T13:00:08.000Z,1017.2
2023-03-04T13:01:24.000Z,1017.1
2023-03-04T13:02:40.000Z,1017.1
2023-03-04T13:03:56.000Z,1017
2023-03-04T13:05:13.000Z,1017
2023-03-04T13:06:28.000Z,1017
2023-03-04T13:07:44.000Z,1017
2023-03-04T13:09:00.000Z,1017.1
2023-03-04T13:10:17.000Z,1017.1
2023-03-04T13:11:33.000Z,1017.1
2023-03-04T13:12:49.000Z,1017.2
2023-03-04T13:14:05.000Z,1017.1
2023-03-04T13:15:22.000Z,1017.1
2023-03-04T13:16:38.000Z,1017.2
2023-03-04T13:17:54.000Z,1017.1
2023-03-04T13:19:10.000Z,1017.1
2023-03-04T13:20:26.000Z,1017.1
2023-03-04T13:21:43.000Z,1017.1
2023-03-04T13:22:58.000Z,1017.1
2023-03-04T13:24:14.000Z,1017
2023-03-04T13:25:30.000Z,1016.9
2023-03-04T13:26:47.000Z,1016.9
2023-03-04T13:28:03.000Z,1016.9
2023-03-04T13:29:19.000Z,1017
2023-03-04T13:30:35.000Z,1016.9
2023-03-04T13:31:52.000Z,1016.9
2023-03-04T13:33:08.000Z,1017
2023-03-04T13:34:24.000Z,1016.9
2023-03-04T13:35:40.000Z,1016.9
2023-03-04T13:36:57.000Z,1016.9
2023-03-04T13:38:13.000Z,1016.9
2023-03-04T13:39:28.000Z,1016.9
2023-03-04T13:40:44.000Z,1016.8
2023-03-04T13:42:00.000Z,1016.8
2023-03-04T13:43:17.000Z,1016.8
2023-03-04T13:44:33.000Z,1016.8
2023-03-04T13:45:49.000Z,1017
2023-03-04T13:47:05.000Z,1017
2023-03-04T13:48:22.000Z,1017
2023-03-04T13:49:38.000Z,1017
2023-03-04T13:50:54.000Z,1017
2023-03-04T13:52:10.000Z,1017
2023-03-04T13:53:27.000Z,1017
2023-03-04T13:54:43.000Z,1017.1
2023-03-04T13:55:58.000Z,1017
2023-03-04T13:57:14.000Z,1016.9
2023-03-04T13:58:31.000Z,1016.9
2023-03-04T13:59:47.000Z,1017
2023-03-04T14:01:03.000Z,1017
2023-03-04T14:02:19.000Z,1017
2023-03-04T14:03:35.000Z,1016.9
2023-03-04T14:04:52.000Z,1016.9
2023-03-04T14:06:08.000Z,1016.8
2023-03-04T14:07:24.000Z,1016.9
2023-03-04T14:08:40.000Z,1016.9
2023-03-04T14:09:57.000Z,1016.8
2023-03-04T14:11:13.000Z,1016.8
2023-03-04T14:12:28.000Z,1016.7
2023-03-04T14:13:44.000Z,1016.8
2023-03-04T14:15:01.000Z,1016.8
2023-03-04T14:16:17.000Z,1016.7
2023-03-04T14:17:33.000Z,1016.7
2023-03-04T14:18:48.000Z,1016.7
2023-03-04T14:20:05.000Z,1016.9
2023-03-04T14:21:21.000Z,1016.8
2023-03-04T14:22:37.000Z,1016.7
2023-03-04T14:23:53.000Z,1016.7
2023-03-04T14:25:10.000Z,1016.8
2023-03-04T14:26:26.000Z,1016.7
2023-03-04T14:27:42.000Z,1016.7
2023-03-04T14:28:58.000Z,1016.7
2023-03-04T14:30:14.000Z,1016.7
2023-03-04T14:31:31.000Z,1016.7
2023-03-04T14:32:47.000Z,1016.7
2023-03-04T14:34:03.000Z,1016.7
2023-03-04T14:35:18.000Z,1016.6
2023-03-04T14:36:35.000Z,1016.6
2023-03-04T14:37:51.000Z,1016.7
2023-03-04T14:39:07.000Z,1016.7
2023-03-04T14:40:23.000Z,1016.7
2023-03-04T14:41:40.000Z,1016.6
2023-03-04T14:42:56.000Z,1016.7
2023-03-04T14:44:12.000Z,1016.7
2023-03-04T14:45:28.000Z,1016.6
2023-03-04T14:46:44.000Z,1016.6
2023-03-04T14:48:01.000Z,1016.7
2023-03-04T14:49:17.000Z,1016.6
2023-03-04T14:50:33.000Z,1016.6
2023-03-04T14:51:48.000Z,1016.6
2023-03-04T14:53:05.000Z,1016.6
2023-03-04T14:54:21.000Z,1016.6
2023-03-04T14:55:37.000Z,1016.6
2023-03-04T14:56:53.000Z,1016.5
2023-03-04T14:58:10.000Z,1016.4
2023-03-04T14:59:26.000Z,1016.5
2023-03-04T15:00:42.000Z,1016.5
2023-03-04T15:01:58.000Z,1016.4
2023-03-04T15:03:15.000Z,1016.4
2023-03-04T15:04:31.000Z,1016.4
2023-03-04T15:05:47.000Z,1016.4
2023-03-04T15:07:03.000Z,1016.4
2023-03-04T15:08:19.000Z,1016.4
2023-03-04T15:09:35.000Z,1016.4
2023-03-04T15:10:51.000Z,1016.4
2023-03-04T15:12:07.000Z,1016.5
2023-03-04T15:13:23.000Z,1016.5
2023-03-04T15:14:40.000Z,1016.4
2023-03-04T15:15:56.000Z,1016.4
2023-03-04T15:17:12.000Z,1016.4
2023-03-04T15:18:28.000Z,1016.4
2023-03-04T15:19:45.000Z,1016.4
2023-03-04T15:21:01.000Z,1016.4
2023-03-04T15:22:17.000Z,1016.3
2023-03-04T15:23:33.000Z,1016.4
2023-03-04T15:24:49.000Z,1016.4
2023-03-04T15:26:05.000Z,1016.4
2023-03-04T15:27:21.000Z,1016.5
2023-03-04T15:28:37.000Z,1016.5
2023-03-04T15:29:53.000Z,1016.4
2023-03-04T15:31:10.000Z,1016.5
2023-03-04T15:32:26.000Z,1016.4
2023-03-04T15:33:42.000Z,1016.4
2023-03-04T15:34:58.000Z,1016.4
2023-03-04T15:36:15.000Z,1016.5
2023-03-04T15:37:31.000Z,1016.5
2023-03-04T15:38:47.000Z,1016.5
2023-03-04T15:40:03.000Z,1016.4
2023-03-04T15:41:19.000Z,1016.4
2023-03-04T15:42:35.000Z,1016.4
2023-03-04T15:43:51.000Z,1016.4
2023-03-04T15:45:07.000Z,1016.4
2023-03-04T15:46:24.000Z,1016.5
2023-03-04T15:48:56.000Z,1016.4
2023-03-04T15:50:12.000Z,1016.4
2023-03-04T15:51:28.000Z,1016.4
2023-03-04T15:52:45.000Z,1016.4
2023-03-04T15:54:01.000Z,1016.4
2023-03-04T15:55:17.000Z,1016.4
2023-03-04T15:56:33.000Z,1016.4
2023-03-04T15:57:49.000Z,1016.4
2023-03-04T15:59:05.000Z,1016.3
2023-03-04T16:00:21.000Z,1016.4
2023-03-04T16:01:37.000Z,1016.4
2023-03-04T16:02:54.000Z,1016.4
2023-03-04T16:04:10.000Z,1016.3
2023-03-04T16:05:26.000Z,1016.4
2023-03-04T16:06:42.000Z,1016.4
2023-03-04T16:07:59.000Z,1016.4
2023-03-04T16:09:15.000Z,1016.4
2023-03-04T16:10:31.000Z,1016.2